createdAt,value
2022-11-29T00:06:18.151Z,7.8
2022-11-29T00:16:20.078Z,7.8
2022-11-29T00:26:22.592Z,7.8
2022-11-29T00:36:24.479Z,7.8
2022-11-29T01:26:35.685Z,7.5
2022-11-29T01:36:37.552Z,7.5
2022-11-29T01:56:42.063Z,7.6
2022-11-29T02:06:43.907Z,7.6
2022-11-29T02:26:48.353Z,7.6
2022-11-29T02:36:50.151Z,7.7
2022-11-29T02:46:52.678Z,7.7
2022-11-29T03:06:57.857Z,7.5
2022-11-29T03:27:02.339Z,7.5
2022-11-29T03:37:04.853Z,7.5
2022-11-29T03:47:06.612Z,7.4
2022-11-29T03:57:08.512Z,7.6
2022-11-29T04:07:10.902Z,7.6
2022-11-29T04:17:12.911Z,7.6
2022-11-29T04:27:15.379Z,7.6
2022-11-29T04:37:17.411Z,7.6
2022-11-29T04:47:19.345Z,7.4
2022-11-29T04:57:21.345Z,7.5
2022-11-29T05:07:23.618Z,7.5
2022-11-29T05:17:25.275Z,7.4
2022-11-29T05:37:29.588Z,7.5
2022-11-29T05:47:31.739Z,7.5
2022-11-29T05:57:33.695Z,7.3
2022-11-29T06:07:36.351Z,7.4
2022-11-29T06:17:39.327Z,7.5
2022-11-29T06:27:40.194Z,7.4
2022-11-29T06:47:45.266Z,7.5
2022-11-29T06:57:47.199Z,7.5
2022-11-29T07:07:49.327Z,7.5
2022-11-29T07:17:51.447Z,7.4
2022-11-29T07:27:54.044Z,7.4
2022-11-29T07:37:56.066Z,7.4
2022-11-29T07:47:58.579Z,7.5
2022-11-29T08:08:02.530Z,7.6
2022-11-29T08:18:04.979Z,7.7
2022-11-29T08:48:11.568Z,7.8
2022-11-29T09:08:15.512Z,7.7
2022-11-29T09:18:17.615Z,7.8
2022-11-29T09:38:22.039Z,8
2022-11-29T10:08:28.974Z,8.2
2022-11-29T10:18:31.001Z,8.1
2022-11-29T10:28:43.461Z,8
2022-11-29T10:38:45.562Z,8.1
2022-11-29T10:58:49.577Z,8.1
2022-11-29T11:08:51.569Z,8.1
2022-11-29T11:18:53.911Z,8.2
2022-11-29T11:28:56.596Z,8
2022-11-29T11:59:02.684Z,8
2022-11-29T12:59:15.011Z,7.8
2022-11-29T13:09:17.141Z,7.9
2022-11-29T13:19:19.369Z,8
2022-11-29T13:49:26.320Z,8
2022-11-29T13:59:28.140Z,8.1
2022-11-29T14:49:39.086Z,8.2
2022-11-29T14:59:41.000Z,8.2
2022-11-29T15:09:43.085Z,8.1
2022-11-29T15:39:50.389Z,8.1
2022-11-29T15:49:52.205Z,8.1
2022-11-29T15:59:54.519Z,8.1
2022-11-29T16:09:56.851Z,8
2022-11-29T16:19:58.863Z,8
2022-11-29T16:30:00.800Z,8
2022-11-29T16:40:03.473Z,7.9
2022-11-29T16:50:05.822Z,8
2022-11-29T17:00:08.088Z,7.9
2022-11-29T17:10:10.548Z,7.9
2022-11-29T17:20:12.786Z,7.8
2022-11-29T17:30:15.202Z,7.8
2022-11-29T17:40:17.690Z,7.6
2022-11-29T17:50:19.844Z,7.6
2022-11-29T18:00:21.813Z,7.7
2022-11-29T18:10:24.403Z,7.7
2022-11-29T18:20:26.808Z,7.6
2022-11-29T18:30:28.854Z,7.5
2022-11-29T18:40:31.051Z,7.5
2022-11-29T18:50:33.651Z,7.6
2022-11-29T19:00:36.270Z,7.4
2022-11-29T19:10:38.476Z,7.5
2022-11-29T19:30:43.200Z,7.3
2022-11-29T19:40:45.745Z,7.3
2022-11-29T19:50:47.916Z,7.2
2022-11-29T20:00:49.644Z,7.2
2022-11-29T20:10:51.680Z,7.1
2022-11-29T20:20:53.737Z,7.1
2022-11-29T20:30:55.738Z,7.1
2022-11-29T20:41:02.391Z,7.1
2022-11-29T20:51:00.001Z,7.1
2022-11-29T21:01:01.769Z,7.1
2022-11-29T21:11:04.153Z,7.1
2022-11-29T21:21:05.950Z,7.2
2022-11-29T21:31:07.761Z,7.2
2022-11-29T21:41:09.641Z,7.1
2022-11-29T21:51:12.073Z,7.1
2022-11-29T22:01:14.430Z,7.1
2022-11-29T22:11:16.903Z,7
2022-11-29T22:21:19.187Z,7
2022-11-29T22:31:20.925Z,7.1
2022-11-29T22:41:23.125Z,7.1
2022-11-29T22:51:25.688Z,7.1
2022-11-29T23:01:27.794Z,7.1
2022-11-29T23:11:29.892Z,7.1
2022-11-29T23:21:31.942Z,7.1
2022-11-29T23:31:34.571Z,7.1
2022-11-29T23:41:36.735Z,7
2022-11-29T23:51:38.567Z,7
